Portada
METAR-TAF:

METAR-TAF

Aeroports :

Casino, Austràlia

latitud: 28-52-39S, longitud: 153-03-07E, altitud: 21 m

Observació

L'informe es va fer fa 36 minuts, a les 01:00 UTC
Vent 9 kt del Oest, variant entre Oest/Sud-Oest i Nord/Nord-Oest
Temperatura 28°C
Humitat 28%
Pressió 1014 hPa

METAR: YCAS 010100Z AUTO 28009KT 250V330 //// // ////// 28/08 Q1014

Hora: 12:36 (01:36 UTC)


TAF: manca

Observacions i pronòstics meteorològics de més de 4000 aeroports (METAR i TAF).

Les estacions disponibles són els punts grocs i vermells al mapa.

Posi el ratolí al punt desitjat per veure el nom de l'estació.

Feu clic per veure les observacions i els pronòstics meteorològics.

Per canviar el mapa: feu clic els botons verds amb una creu de color negre per apropar; al botó verd amb un guió per allunyar la imatge; o en les fletxes verdes per a mapes adjacents.


METAR-TAF: